Time;durP1;ratioP1;P1;durP2;ratioP2;P2;SDS_P1;SDS_P2;PMS_P1;PMS_P2;Temp;Humidity;BMP_temperature;BMP_pressure;BME280_temperature;BME280_humidity;BME280_pressure;Samples;Min_cycle;Max_cycle;Signal;HPM_P1;HPM_P2
2022/03/28 00:00:12;;;;;;;8.57;6.60;;;11.60;54.50;;;;;;5051256;28;20021;-69
2022/03/28 00:02:40;;;;;;;13.25;7.15;;;11.60;54.40;;;;;;5050414;28;20461;-69
2022/03/28 00:05:07;;;;;;;13.35;6.57;;;11.60;54.50;;;;;;5051255;28;20127;-69
2022/03/28 00:07:33;;;;;;;10.75;7.13;;;11.60;54.50;;;;;;5050330;28;20095;-69
2022/03/28 00:09:59;;;;;;;14.38;7.63;;;11.50;54.70;;;;;;5051377;28;20052;-69
2022/03/28 00:12:25;;;;;;;11.60;7.25;;;11.50;54.70;;;;;;5051613;28;20064;-69
2022/03/28 00:14:50;;;;;;;11.80;6.95;;;11.40;55.00;;;;;;5050184;28;20021;-70
2022/03/28 00:17:16;;;;;;;9.85;7.25;;;11.40;55.20;;;;;;5051234;28;20028;-68
2022/03/28 00:19:42;;;;;;;13.15;7.07;;;11.40;55.30;;;;;;5050643;28;20106;-69
2022/03/28 00:22:08;;;;;;;9.63;6.68;;;11.40;55.40;;;;;;5051245;28;20064;-68
2022/03/28 00:24:34;;;;;;;13.95;7.78;;;11.30;55.60;;;;;;5054001;28;20052;-68
2022/03/28 00:27:00;;;;;;;10.73;7.05;;;11.30;55.60;;;;;;5054780;28;20096;-68
2022/03/28 00:29:26;;;;;;;11.77;7.40;;;11.30;55.60;;;;;;5054367;28;20021;-70
2022/03/28 00:31:51;;;;;;;11.82;7.40;;;11.30;55.50;;;;;;5054107;28;20033;-70
2022/03/28 00:34:21;;;;;;;10.80;6.80;;;11.20;55.80;;;;;;5054442;28;20446;-70
2022/03/28 00:36:48;;;;;;;10.20;7.60;;;11.20;55.80;;;;;;5053996;28;20050;-70
2022/03/28 00:39:16;;;;;;;11.52;7.03;;;11.30;55.80;;;;;;5054588;28;20025;-70
2022/03/28 00:41:42;;;;;;;10.63;6.78;;;11.30;55.60;;;;;;5053872;28;20056;-70
2022/03/28 00:44:08;;;;;;;14.23;6.78;;;11.30;55.70;;;;;;5054693;28;20036;-70
2022/03/28 00:46:35;;;;;;;9.07;6.10;;;11.30;55.40;;;;;;5053881;28;20526;-70
2022/03/28 00:49:01;;;;;;;8.48;6.20;;;11.20;55.30;;;;;;5054282;28;20481;-69
2022/03/28 00:51:45;;;;;;;9.48;6.15;;;11.20;55.10;;;;;;5053505;28;20025;-69
2022/03/28 00:54:11;;;;;;;9.75;6.13;;;11.20;55.40;;;;;;5054286;28;20029;-70
2022/03/28 00:56:37;;;;;;;8.20;6.05;;;11.20;55.60;;;;;;5053532;28;20366;-70
2022/03/28 00:59:04;;;;;;;14.10;6.53;;;11.20;55.90;;;;;;5054175;28;20152;-69
2022/03/28 01:01:30;;;;;;;9.45;6.18;;;11.10;55.80;;;;;;5053042;28;20036;-69
2022/03/28 01:03:56;;;;;;;13.27;6.32;;;11.10;55.90;;;;;;5052892;28;20111;-69
2022/03/28 01:06:23;;;;;;;11.05;6.28;;;11.10;55.90;;;;;;5053389;28;20120;-70
2022/03/28 01:08:49;;;;;;;8.10;5.95;;;11.00;55.70;;;;;;5053631;28;20031;-70
2022/03/28 01:11:17;;;;;;;9.43;5.45;;;11.00;55.70;;;;;;5053217;28;20100;-69
2022/03/28 01:13:43;;;;;;;6.97;5.80;;;10.90;55.90;;;;;;5052547;28;20336;-70
2022/03/28 01:16:09;;;;;;;7.85;6.13;;;10.90;56.10;;;;;;5053163;28;20061;-70
2022/03/28 01:18:35;;;;;;;9.32;6.15;;;10.90;56.30;;;;;;5052935;28;20108;-69
2022/03/28 01:21:02;;;;;;;10.77;5.97;;;10.80;56.30;;;;;;5051785;28;20418;-69
2022/03/28 01:23:28;;;;;;;7.57;5.95;;;10.80;56.40;;;;;;5032771;28;20095;-69
2022/03/28 01:25:56;;;;;;;9.40;6.40;;;10.80;56.50;;;;;;5033703;28;20026;-69
2022/03/28 01:28:27;;;;;;;7.85;6.05;;;10.80;56.50;;;;;;5033176;28;20033;-69
2022/03/28 01:30:56;;;;;;;8.07;5.72;;;10.80;56.60;;;;;;5033772;28;20025;-69
2022/03/28 01:33:22;;;;;;;11.52;6.15;;;10.80;56.60;;;;;;5032787;28;20095;-70
2022/03/28 01:35:48;;;;;;;8.00;5.72;;;10.80;56.50;;;;;;5031735;28;20031;-70
2022/03/28 01:38:17;;;;;;;9.45;6.20;;;10.70;56.70;;;;;;5032808;28;20025;-70
2022/03/28 01:40:48;;;;;;;8.68;6.05;;;10.70;56.60;;;;;;5032104;28;20458;-69
2022/03/28 01:43:14;;;;;;;9.82;6.47;;;10.70;56.60;;;;;;5032690;28;20021;-69
2022/03/28 01:45:40;;;;;;;9.98;6.63;;;10.70;56.50;;;;;;5031829;28;20404;-70
2022/03/28 01:48:07;;;;;;;9.55;6.00;;;10.70;56.80;;;;;;5037767;28;20029;-70
2022/03/28 01:50:33;;;;;;;9.32;6.53;;;10.70;56.80;;;;;;5052734;28;20023;-70
2022/03/28 01:52:58;;;;;;;12.38;7.10;;;10.70;57.50;;;;;;5052508;28;20029;-69
2022/03/28 01:55:25;;;;;;;10.90;6.32;;;10.60;57.70;;;;;;5052707;28;20186;-75
2022/03/28 01:57:51;;;;;;;11.18;6.38;;;10.60;58.00;;;;;;5052410;28;20032;-70
2022/03/28 02:00:19;;;;;;;12.23;7.43;;;10.60;57.70;;;;;;5052852;28;20060;-69
2022/03/28 02:02:48;;;;;;;16.77;7.40;;;10.50;59.00;;;;;;5052003;28;20872;-69
2022/03/28 02:05:15;;;;;;;20.90;7.80;;;10.40;59.40;;;;;;5052951;28;20035;-69
2022/03/28 02:07:43;;;;;;;14.98;8.07;;;10.40;60.00;;;;;;5051848;28;20466;-69
2022/03/28 02:10:11;;;;;;;16.00;8.50;;;10.40;60.10;;;;;;5052879;28;20025;-69
2022/03/28 02:12:37;;;;;;;14.52;8.02;;;10.40;60.90;;;;;;5052575;28;20488;-69
2022/03/28 02:15:06;;;;;;;13.23;7.45;;;10.30;61.20;;;;;;5052821;28;20032;-70
2022/03/28 02:17:33;;;;;;;17.83;7.70;;;10.30;61.70;;;;;;5052141;28;20053;-70
2022/03/28 02:19:59;;;;;;;14.80;8.45;;;10.30;62.20;;;;;;5052723;28;20021;-68
2022/03/28 02:22:24;;;;;;;16.92;8.65;;;10.30;62.20;;;;;;5052552;28;20098;-69
2022/03/28 02:24:51;;;;;;;15.95;8.40;;;10.20;62.10;;;;;;5052396;28;20028;-69
2022/03/28 02:27:16;;;;;;;13.25;7.75;;;10.20;61.80;;;;;;5052515;28;20051;-68
2022/03/28 02:29:42;;;;;;;16.20;8.35;;;10.20;61.80;;;;;;5051943;28;20024;-69
2022/03/28 02:32:09;;;;;;;14.10;7.95;;;10.20;62.20;;;;;;5052493;28;20028;-69
2022/03/28 02:34:35;;;;;;;14.23;8.27;;;10.20;61.30;;;;;;5051805;28;20021;-70
2022/03/28 02:37:01;;;;;;;13.32;8.27;;;10.10;61.60;;;;;;5052211;28;20049;-70
2022/03/28 02:39:27;;;;;;;14.20;8.10;;;10.10;61.70;;;;;;5051629;28;20044;-74
2022/03/28 02:41:52;;;;;;;14.07;8.40;;;10.10;61.20;;;;;;5051922;28;20489;-70
2022/03/28 02:44:19;;;;;;;15.98;8.73;;;10.10;60.80;;;;;;5051944;28;20036;-70
2022/03/28 02:46:46;;;;;;;15.30;8.40;;;10.10;60.50;;;;;;5050455;28;20028;-70
2022/03/28 02:49:12;;;;;;;17.08;8.00;;;10.10;59.70;;;;;;5052095;28;20143;-68
2022/03/28 02:51:39;;;;;;;14.95;8.35;;;10.10;59.40;;;;;;5051414;28;20032;-68
2022/03/28 02:54:06;;;;;;;12.57;8.15;;;10.10;60.10;;;;;;5052143;28;20078;-68
2022/03/28 02:56:32;;;;;;;20.65;9.50;;;10.00;59.40;;;;;;5051171;28;20045;-69
2022/03/28 02:58:58;;;;;;;18.48;9.10;;;10.00;60.10;;;;;;5051969;28;20032;-69
2022/03/28 03:01:23;;;;;;;15.73;8.52;;;10.00;60.20;;;;;;5051968;28;20113;-71
2022/03/28 03:03:49;;;;;;;21.85;8.77;;;10.00;60.30;;;;;;5051314;28;20032;-69
2022/03/28 03:06:14;;;;;;;23.17;9.02;;;10.00;60.80;;;;;;5052127;28;20422;-69
2022/03/28 03:08:40;;;;;;;15.00;8.50;;;10.00;60.90;;;;;;5051261;28;20033;-70
2022/03/28 03:11:06;;;;;;;14.95;8.60;;;9.90;61.10;;;;;;5051883;28;20049;-69
2022/03/28 03:13:31;;;;;;;14.40;7.68;;;10.00;60.90;;;;;;5050471;28;20024;-70
2022/03/28 03:15:58;;;;;;;16.65;8.02;;;9.90;60.40;;;;;;5051870;28;20025;-69
2022/03/28 03:18:24;;;;;;;14.23;8.32;;;9.90;59.90;;;;;;5050356;28;20025;-68
2022/03/28 03:23:34;;;;;;;13.25;8.18;;;9.80;60.20;;;;;;5050845;28;20389;-70
2022/03/28 03:26:00;;;;;;;15.60;7.95;;;9.80;60.10;;;;;;5051543;28;20029;-69
2022/03/28 03:28:25;;;;;;;16.73;8.15;;;9.80;60.60;;;;;;5051898;28;20032;-70
2022/03/28 03:30:51;;;;;;;15.05;8.05;;;9.70;59.70;;;;;;5049835;28;20385;-70
2022/03/28 03:33:17;;;;;;;13.07;6.43;;;9.80;58.70;;;;;;5051447;28;20035;-68
2022/03/28 03:35:42;;;;;;;15.13;6.90;;;9.70;57.10;;;;;;5051091;28;20423;-69
2022/03/28 03:38:09;;;;;;;11.73;7.20;;;9.70;56.50;;;;;;5051821;28;20029;-68
2022/03/28 03:40:35;;;;;;;16.95;6.65;;;9.60;56.80;;;;;;5051028;28;20086;-69
2022/03/28 03:43:01;;;;;;;9.93;6.53;;;9.60;57.70;;;;;;5051642;28;20389;-69
2022/03/28 03:45:26;;;;;;;10.27;6.22;;;9.60;56.60;;;;;;5051482;28;20622;-69
2022/03/28 03:47:52;;;;;;;15.23;6.65;;;9.60;56.70;;;;;;5050912;28;20036;-69
2022/03/28 03:50:18;;;;;;;13.73;7.05;;;9.50;56.50;;;;;;5051495;28;20110;-69
2022/03/28 03:52:43;;;;;;;14.40;6.47;;;9.50;56.30;;;;;;5050879;28;20036;-69
2022/03/28 03:55:10;;;;;;;12.60;6.13;;;9.50;56.40;;;;;;5050995;28;20056;-68
2022/03/28 03:57:36;;;;;;;9.35;5.97;;;9.50;56.10;;;;;;5051725;28;20369;-69
2022/03/28 04:00:04;;;;;;;12.90;6.05;;;9.50;55.80;;;;;;5055147;28;20028;-69
2022/03/28 04:02:29;;;;;;;9.23;5.85;;;9.50;55.40;;;;;;5055269;28;20072;-70
2022/03/28 04:04:55;;;;;;;12.30;5.93;;;9.50;55.20;;;;;;5054725;28;20065;-70
2022/03/28 04:07:21;;;;;;;9.88;5.20;;;9.50;54.50;;;;;;5053902;28;20454;-69
2022/03/28 04:09:46;;;;;;;9.63;5.30;;;9.40;52.60;;;;;;5054298;28;20032;-69
2022/03/28 04:12:12;;;;;;;12.45;5.57;;;9.40;51.80;;;;;;5055118;28;20044;-68
2022/03/28 04:14:38;;;;;;;15.25;6.07;;;9.40;51.90;;;;;;5054175;28;20111;-69
2022/03/28 04:17:04;;;;;;;12.18;5.85;;;9.40;52.00;;;;;;5055160;28;20063;-69
2022/03/28 04:19:30;;;;;;;9.70;5.40;;;9.30;52.40;;;;;;5054839;28;20104;-69
2022/03/28 04:21:55;;;;;;;9.70;5.20;;;9.30;52.50;;;;;;5054293;28;20093;-69
2022/03/28 04:24:21;;;;;;;12.82;5.47;;;9.30;52.10;;;;;;5054731;28;20021;-68
2022/03/28 04:26:47;;;;;;;10.48;5.55;;;9.30;52.20;;;;;;5054284;28;20091;-69
2022/03/28 04:29:13;;;;;;;13.07;6.40;;;9.30;52.20;;;;;;5054811;28;20036;-70
2022/03/28 04:31:40;;;;;;;13.38;6.05;;;9.30;53.30;;;;;;5054112;28;20025;-70
2022/03/28 04:34:07;;;;;;;10.20;6.32;;;9.40;54.60;;;;;;5054826;28;20052;-69
2022/03/28 04:36:33;;;;;;;14.88;6.50;;;9.40;56.20;;;;;;5054578;28;20064;-73
2022/03/28 04:38:59;;;;;;;14.05;6.75;;;9.40;56.40;;;;;;5054856;28;20033;-69
2022/03/28 04:41:25;;;;;;;15.85;6.40;;;9.40;56.90;;;;;;5053364;28;20025;-71
2022/03/28 04:43:51;;;;;;;15.73;6.38;;;9.30;57.00;;;;;;5053893;28;20113;-70
2022/03/28 04:46:16;;;;;;;14.30;5.93;;;9.30;56.20;;;;;;5054268;28;20492;-69
2022/03/28 04:48:42;;;;;;;18.85;5.90;;;9.30;55.30;;;;;;5053873;28;20506;-69
2022/03/28 04:51:08;;;;;;;14.85;5.40;;;9.30;54.80;;;;;;5054408;28;20036;-69
2022/03/28 04:53:34;;;;;;;10.98;6.18;;;9.30;55.20;;;;;;5053690;28;20033;-70
2022/03/28 04:56:00;;;;;;;12.35;6.88;;;9.30;54.50;;;;;;5054215;28;20393;-70
2022/03/28 04:58:25;;;;;;;12.82;6.85;;;9.40;54.60;;;;;;5050751;28;20025;-70
2022/03/28 05:00:52;;;;;;;17.05;6.90;;;9.40;55.20;;;;;;5053002;28;20031;-69
2022/03/28 05:03:18;;;;;;;10.40;6.20;;;9.30;55.20;;;;;;5053339;28;20355;-70
2022/03/28 05:05:44;;;;;;;16.20;6.85;;;9.30;55.20;;;;;;5053126;28;20029;-69
2022/03/28 05:08:10;;;;;;;13.50;6.63;;;9.30;55.70;;;;;;5053482;28;20112;-68
2022/03/28 05:10:36;;;;;;;12.80;6.30;;;9.30;55.30;;;;;;5051974;28;20039;-70
2022/03/28 05:13:01;;;;;;;11.90;5.97;;;9.30;54.90;;;;;;5053397;28;20147;-70
2022/03/28 05:15:27;;;;;;;17.17;9.23;;;9.40;54.60;;;;;;5053291;28;20501;-70
2022/03/28 05:17:53;;;;;;;12.85;7.78;;;9.40;54.70;;;;;;5052872;28;20033;-69
2022/03/28 05:20:19;;;;;;;15.07;6.72;;;9.40;54.10;;;;;;5053670;28;20025;-70
2022/03/28 05:22:45;;;;;;;13.52;6.07;;;9.40;52.90;;;;;;5052741;28;20040;-70
2022/03/28 05:25:11;;;;;;;13.52;6.13;;;9.40;51.80;;;;;;5052421;28;20029;-70
2022/03/28 05:27:47;;;;;;;9.07;5.38;;;9.50;51.10;;;;;;5052379;28;20025;-69
2022/03/28 05:30:13;;;;;;;11.60;5.78;;;9.40;50.20;;;;;;5053513;28;20087;-68
2022/03/28 05:32:39;;;;;;;15.80;8.85;;;9.50;49.90;;;;;;5052370;28;20032;-68
2022/03/28 05:35:06;;;;;;;18.25;8.23;;;9.50;49.40;;;;;;5053312;28;20433;-69
2022/03/28 05:37:33;;;;;;;13.65;6.32;;;9.60;48.50;;;;;;5053108;28;20037;-70
2022/03/28 05:39:59;;;;;;;17.55;6.00;;;9.60;48.10;;;;;;5046366;28;20034;-69
2022/03/28 05:42:25;;;;;;;15.57;6.13;;;9.60;47.70;;;;;;5033299;28;20030;-69
2022/03/28 05:44:51;;;;;;;13.68;6.10;;;9.70;47.70;;;;;;5031455;28;20030;-70
2022/03/28 05:47:17;;;;;;;21.60;7.15;;;9.70;47.40;;;;;;5032988;28;20109;-69
2022/03/28 05:49:42;;;;;;;19.90;6.60;;;9.70;47.10;;;;;;5032560;28;20107;-69
2022/03/28 05:52:08;;;;;;;16.55;6.95;;;9.70;47.30;;;;;;5033245;28;20021;-69
2022/03/28 05:54:35;;;;;;;24.70;7.03;;;9.80;47.10;;;;;;5032822;28;20017;-69
2022/03/28 05:57:00;;;;;;;21.50;8.18;;;9.80;47.20;;;;;;5032423;28;20026;-69
2022/03/28 05:59:27;;;;;;;15.10;7.35;;;9.80;47.50;;;;;;5033223;28;20032;-69
2022/03/28 06:01:53;;;;;;;15.35;7.13;;;9.90;47.60;;;;;;5032610;28;20026;-69
2022/03/28 06:04:18;;;;;;;20.08;6.88;;;9.90;47.50;;;;;;5051618;28;20037;-69
2022/03/28 06:06:44;;;;;;;17.50;7.55;;;9.90;47.30;;;;;;5052441;28;20111;-69
2022/03/28 06:09:10;;;;;;;22.48;7.13;;;10.00;47.50;;;;;;5052991;28;20071;-70
2022/03/28 06:11:36;;;;;;;17.05;7.68;;;10.00;47.50;;;;;;5052807;28;20029;-69
2022/03/28 06:14:03;;;;;;;18.25;7.75;;;10.10;47.40;;;;;;5051998;28;20104;-69
2022/03/28 06:16:29;;;;;;;11.75;6.78;;;10.10;47.50;;;;;;5052780;28;20049;-70
2022/03/28 06:18:55;;;;;;;21.08;8.10;;;10.10;47.60;;;;;;5051899;28;20059;-69
2022/03/28 06:21:21;;;;;;;19.55;8.00;;;10.20;47.80;;;;;;5052684;28;20025;-71
2022/03/28 06:23:46;;;;;;;15.40;7.47;;;10.20;48.00;;;;;;5051747;28;20028;-69
2022/03/28 06:26:12;;;;;;;20.88;7.82;;;10.20;48.20;;;;;;5052775;28;20029;-70
2022/03/28 06:28:39;;;;;;;18.33;8.48;;;10.30;48.40;;;;;;5052604;28;20446;-69
2022/03/28 06:31:06;;;;;;;25.55;8.13;;;10.30;48.30;;;;;;5052316;28;20037;-70
2022/03/28 06:33:32;;;;;;;21.88;8.80;;;10.40;48.80;;;;;;5052430;28;20363;-69
2022/03/28 06:35:58;;;;;;;16.05;8.48;;;10.40;48.50;;;;;;5051515;28;20040;-70
2022/03/28 06:38:24;;;;;;;16.85;8.00;;;10.50;48.40;;;;;;5052520;28;20017;-69
2022/03/28 06:40:49;;;;;;;15.07;8.85;;;10.50;48.00;;;;;;5051778;28;20063;-70
2022/03/28 06:43:15;;;;;;;18.20;7.90;;;10.50;48.50;;;;;;5052576;28;20128;-70
2022/03/28 06:45:41;;;;;;;20.45;8.73;;;10.60;49.60;;;;;;5051623;28;20370;-70
2022/03/28 06:48:07;;;;;;;20.73;8.57;;;10.60;49.90;;;;;;5052185;28;20021;-70
2022/03/28 06:50:34;;;;;;;17.45;8.77;;;10.70;50.00;;;;;;5052218;28;20025;-70
2022/03/28 06:53:00;;;;;;;24.83;9.05;;;10.70;49.50;;;;;;5051448;28;20396;-71
2022/03/28 06:55:26;;;;;;;25.13;9.38;;;10.80;49.60;;;;;;5051918;28;20103;-69
2022/03/28 06:57:52;;;;;;;17.35;9.18;;;10.90;49.80;;;;;;5051142;28;20029;-69
2022/03/28 07:00:19;;;;;;;24.23;9.52;;;11.00;49.90;;;;;;5051798;28;20032;-69
2022/03/28 07:02:45;;;;;;;17.95;9.20;;;11.20;49.80;;;;;;5051410;28;20082;-70
2022/03/28 07:05:11;;;;;;;19.42;9.98;;;11.50;49.40;;;;;;5051881;28;20029;-70
2022/03/28 07:07:39;;;;;;;19.00;10.13;;;11.70;48.90;;;;;;5052020;28;20028;-69
2022/03/28 07:10:06;;;;;;;24.50;9.95;;;12.10;48.20;;;;;;5051268;28;20029;-69
2022/03/28 07:12:31;;;;;;;26.25;10.27;;;12.50;47.50;;;;;;5052329;28;20036;-70
2022/03/28 07:14:57;;;;;;;25.33;10.07;;;12.80;46.50;;;;;;5050950;28;20127;-70
2022/03/28 07:17:23;;;;;;;21.50;10.70;;;13.20;45.30;;;;;;5050161;28;20037;-72
2022/03/28 07:19:48;;;;;;;21.33;10.30;;;13.70;44.30;;;;;;5050816;28;20029;-71
2022/03/28 07:22:14;;;;;;;22.55;11.35;;;14.30;43.50;;;;;;5051715;28;20438;-70
2022/03/28 07:24:39;;;;;;;18.73;10.07;;;15.50;41.10;;;;;;5051503;28;20381;-71
2022/03/28 07:27:05;;;;;;;27.15;12.50;;;17.60;39.30;;;;;;5051062;28;20452;-71
2022/03/28 07:29:31;;;;;;;26.50;15.60;;;20.70;34.90;;;;;;5051952;28;20033;-70
2022/03/28 07:31:57;;;;;;;26.55;12.55;;;23.10;30.40;;;;;;5050930;28;20029;-71
2022/03/28 07:34:34;;;;;;;17.55;11.00;;;25.00;28.80;;;;;;5055767;28;20035;-70
2022/03/28 07:37:02;;;;;;;20.25;10.95;;;26.30;27.30;;;;;;5055306;28;20429;-71
2022/03/28 07:39:28;;;;;;;19.58;9.95;;;27.70;26.40;;;;;;5055637;28;20024;-71
2022/03/28 07:41:54;;;;;;;25.33;10.95;;;28.80;25.60;;;;;;5055032;28;20036;-70
2022/03/28 07:44:20;;;;;;;17.73;10.57;;;29.90;25.00;;;;;;5055553;28;20394;-70
2022/03/28 07:46:46;;;;;;;17.25;10.35;;;30.60;24.20;;;;;;5055097;28;20025;-71
2022/03/28 07:49:12;;;;;;;16.83;10.77;;;30.90;23.80;;;;;;5055452;28;20043;-71
2022/03/28 07:51:38;;;;;;;18.63;11.00;;;30.80;23.60;;;;;;5055540;28;20116;-70
2022/03/28 07:54:04;;;;;;;20.20;11.57;;;30.90;23.50;;;;;;5054939;28;20468;-71
2022/03/28 07:56:31;;;;;;;16.10;10.65;;;30.80;23.60;;;;;;5055606;28;20051;-71
2022/03/28 07:58:57;;;;;;;15.38;10.00;;;30.80;23.70;;;;;;5054743;28;20037;-70
2022/03/28 08:01:24;;;;;;;21.42;11.32;;;30.90;24.10;;;;;;5055434;28;20032;-71
2022/03/28 08:03:49;;;;;;;17.77;11.20;;;31.30;23.80;;;;;;5054655;28;20108;-71
2022/03/28 08:06:15;;;;;;;16.95;11.32;;;31.00;23.90;;;;;;5055255;28;20112;-71
2022/03/28 08:08:41;;;;;;;16.02;10.63;;;31.20;23.70;;;;;;5055210;28;20025;-70
2022/03/28 08:11:07;;;;;;;20.33;11.43;;;31.30;23.80;;;;;;5054030;28;20075;-71
2022/03/28 08:13:34;;;;;;;16.63;11.15;;;31.10;23.80;;;;;;5055000;28;20135;-70
2022/03/28 08:16:00;;;;;;;22.40;10.73;;;31.10;23.80;;;;;;5053159;28;20429;-72
2022/03/28 08:18:26;;;;;;;16.10;10.27;;;31.20;23.90;;;;;;5055162;28;20091;-71
2022/03/28 08:20:53;;;;;;;17.83;10.70;;;31.10;24.10;;;;;;5054653;28;20082;-71
2022/03/28 08:23:20;;;;;;;18.95;10.82;;;30.90;24.10;;;;;;5054719;28;20025;-71
2022/03/28 08:25:47;;;;;;;24.48;10.82;;;30.70;24.50;;;;;;5054908;28;20117;-72
2022/03/28 08:28:13;;;;;;;16.50;10.52;;;30.50;24.40;;;;;;5054687;28;20025;-71
2022/03/28 08:30:39;;;;;;;14.25;10.50;;;30.70;24.50;;;;;;5054958;28;20032;-71
2022/03/28 08:33:05;;;;;;;19.85;11.60;;;30.80;24.20;;;;;;5054047;28;20029;-70
2022/03/28 08:35:30;;;;;;;19.65;11.38;;;30.90;24.30;;;;;;5055049;28;20402;-71
2022/03/28 08:37:56;;;;;;;28.20;12.20;;;31.00;24.20;;;;;;5052697;28;20027;-70
2022/03/28 08:40:22;;;;;;;18.70;10.45;;;30.60;24.30;;;;;;5054272;28;20029;-70
2022/03/28 08:42:49;;;;;;;19.67;10.30;;;29.90;24.30;;;;;;5053514;28;20040;-76
2022/03/28 08:45:16;;;;;;;20.40;10.43;;;28.40;24.30;;;;;;5053070;28;20039;-70
2022/03/28 08:47:44;;;;;;;19.73;10.27;;;26.60;25.20;;;;;;5054546;28;20025;-71
2022/03/28 08:50:12;;;;;;;16.33;11.15;;;25.40;26.20;;;;;;5053574;28;20104;-71
2022/03/28 08:52:40;;;;;;;17.60;10.32;;;24.50;26.90;;;;;;5053371;28;20029;-70
2022/03/28 08:55:09;;;;;;;17.10;10.15;;;23.80;27.60;;;;;;5053393;28;20049;-71
2022/03/28 08:57:35;;;;;;;15.70;10.80;;;23.40;28.20;;;;;;5054331;28;20033;-71
2022/03/28 09:00:03;;;;;;;19.05;11.52;;;22.90;28.80;;;;;;5053688;28;20025;-70
2022/03/28 09:02:37;;;;;;;18.83;10.32;;;22.40;29.50;;;;;;5053955;28;20040;-71
2022/03/28 09:05:04;;;;;;;14.93;11.30;;;22.10;30.40;;;;;;5053445;28;20029;-70
2022/03/28 09:07:30;;;;;;;17.77;10.35;;;21.80;30.90;;;;;;5054149;28;20034;-71
2022/03/28 09:09:59;;;;;;;13.95;10.48;;;21.60;31.10;;;;;;5053412;28;20037;-71
2022/03/28 09:12:26;;;;;;;16.75;10.98;;;21.40;31.30;;;;;;5053527;28;20037;-70
2022/03/28 09:15:02;;;;;;;16.40;10.57;;;21.40;32.40;;;;;;5053190;28;20040;-71
2022/03/28 09:17:28;;;;;;;16.15;10.98;;;21.40;32.00;;;;;;5054019;28;20139;-71
2022/03/28 09:20:00;;;;;;;14.57;10.23;;;21.30;32.50;;;;;;5053160;28;20136;-71
2022/03/28 09:22:34;;;;;;;15.65;9.88;;;21.30;33.20;;;;;;5053805;28;20036;-71
2022/03/28 09:25:03;;;;;;;18.88;9.77;;;21.20;32.90;;;;;;5051974;28;20495;-71
2022/03/28 09:27:35;;;;;;;20.77;11.30;;;21.10;33.20;;;;;;5053925;28;20025;-70
2022/03/28 09:30:13;;;;;;;17.80;11.38;;;21.00;33.40;;;;;;5053184;28;20028;-71
2022/03/28 09:32:47;;;;;;;19.77;11.05;;;21.00;33.70;;;;;;5053527;28;20021;-71
2022/03/28 09:35:23;;;;;;;22.05;11.10;;;20.90;33.80;;;;;;5052747;28;20492;-70
2022/03/28 09:37:51;;;;;;;19.80;11.38;;;20.90;34.30;;;;;;5053467;28;20028;-70
2022/03/28 09:40:31;;;;;;;14.02;10.27;;;20.80;34.40;;;;;;5053471;28;20466;-70
2022/03/28 09:42:58;;;;;;;15.93;11.25;;;20.80;35.10;;;;;;5052728;28;20470;-72
2022/03/28 09:45:27;;;;;;;16.33;10.70;;;20.90;35.90;;;;;;5053410;28;20118;-71
2022/03/28 09:47:55;;;;;;;16.10;10.05;;;20.90;35.60;;;;;;5052680;28;20128;-72
2022/03/28 09:50:47;;;;;;;16.98;9.20;;;20.90;36.10;;;;;;5053145;28;20033;-70
2022/03/28 09:53:25;;;;;;;17.45;10.18;;;21.10;36.50;;;;;;5052139;28;20240;-70
2022/03/28 09:56:02;;;;;;;18.23;10.25;;;21.10;36.00;;;;;;5052585;28;20076;-71
2022/03/28 09:58:47;;;;;;;16.88;10.57;;;21.00;36.10;;;;;;5053214;28;20044;-71
2022/03/28 10:01:23;;;;;;;15.07;10.38;;;20.90;36.40;;;;;;5052475;28;20658;-70
2022/03/28 10:03:55;;;;;;;13.15;10.80;;;20.80;36.90;;;;;;5052567;28;20036;-70
2022/03/28 10:06:21;;;;;;;14.90;10.23;;;20.80;36.90;;;;;;5052970;28;20025;-69
2022/03/28 10:08:47;;;;;;;13.30;9.60;;;20.80;36.80;;;;;;5052358;28;20104;-70
2022/03/28 10:11:14;;;;;;;15.93;9.88;;;20.80;37.80;;;;;;5051640;28;20025;-71
2022/03/28 10:13:40;;;;;;;11.32;9.32;;;20.80;37.10;;;;;;5052844;28;20385;-71
2022/03/28 10:16:06;;;;;;;11.65;8.88;;;20.90;37.80;;;;;;5052271;28;20032;-71
2022/03/28 10:18:39;;;;;;;13.00;9.38;;;21.00;38.10;;;;;;5052557;28;20032;-71
2022/03/28 10:21:15;;;;;;;14.10;9.55;;;21.10;37.80;;;;;;5052016;28;20036;-70
2022/03/28 10:24:04;;;;;;;11.60;8.63;;;21.10;37.10;;;;;;5052799;28;20059;-70
2022/03/28 10:26:36;;;;;;;18.77;11.55;;;21.10;36.70;;;;;;5048695;28;20520;-70
2022/03/28 10:29:11;;;;;;;14.43;9.82;;;21.10;36.90;;;;;;5051719;28;20035;-70
2022/03/28 10:31:56;;;;;;;10.93;9.25;;;21.10;37.00;;;;;;5051955;28;20025;-71
2022/03/28 10:34:41;;;;;;;12.88;9.23;;;21.00;37.20;;;;;;5051949;28;20508;-70
2022/03/28 10:37:26;;;;;;;10.02;8.23;;;20.90;37.40;;;;;;5051801;28;20025;-72
2022/03/28 10:40:12;;;;;;;12.57;9.80;;;21.00;38.30;;;;;;5052417;28;20025;-70
2022/03/28 10:42:44;;;;;;;13.07;9.82;;;21.10;37.90;;;;;;5052144;28;20040;-70
2022/03/28 10:45:11;;;;;;;11.48;8.80;;;21.20;37.70;;;;;;5051954;28;20029;-70
2022/03/28 10:47:41;;;;;;;15.40;9.73;;;21.30;37.90;;;;;;5051841;28;20474;-71
2022/03/28 10:50:10;;;;;;;13.93;10.18;;;21.30;36.80;;;;;;5051476;28;20029;-70
2022/03/28 10:52:36;;;;;;;12.48;9.52;;;21.20;37.20;;;;;;5052272;28;20139;-70
2022/03/28 10:55:09;;;;;;;13.43;9.80;;;21.20;37.40;;;;;;5051555;28;20056;-70
2022/03/28 10:57:35;;;;;;;11.73;8.82;;;21.10;37.40;;;;;;5051842;28;20098;-71
2022/03/28 11:00:09;;;;;;;11.18;9.32;;;21.00;37.90;;;;;;5051274;28;20029;-71
2022/03/28 11:02:36;;;;;;;11.85;8.88;;;21.00;37.90;;;;;;5051782;28;20043;-70
2022/03/28 11:05:13;;;;;;;11.00;8.48;;;21.10;39.00;;;;;;5051325;28;20036;-72
2022/03/28 11:07:38;;;;;;;14.88;10.05;;;21.20;39.00;;;;;;5051189;28;20025;-70
2022/03/28 11:10:08;;;;;;;13.32;9.63;;;21.20;37.80;;;;;;5049483;28;20374;-70
2022/03/28 11:12:39;;;;;;;11.90;9.63;;;21.20;37.90;;;;;;5051894;28;20029;-70
2022/03/28 11:15:21;;;;;;;15.60;10.55;;;21.30;38.50;;;;;;5050981;28;20029;-71
2022/03/28 11:18:02;;;;;;;10.93;9.40;;;21.30;38.00;;;;;;5051779;28;20116;-71
2022/03/28 11:20:42;;;;;;;;;;;21.30;37.90;;;;;;5052287;28;20493;-71
2022/03/28 11:23:10;;;;;;;11.75;9.15;;;21.30;37.70;;;;;;5049695;28;19908;-70
2022/03/28 11:25:41;;;;;;;18.02;9.85;;;21.30;38.10;;;;;;5051515;28;20041;-70
2022/03/28 11:28:22;;;;;;;10.75;9.25;;;21.20;37.70;;;;;;5050983;28;20069;-70
2022/03/28 11:30:51;;;;;;;13.63;9.27;;;21.20;37.90;;;;;;5052032;28;20466;-70
2022/03/28 11:33:17;;;;;;;13.23;9.15;;;21.20;38.40;;;;;;5050887;28;20040;-70
2022/03/28 11:36:04;;;;;;;17.20;10.65;;;21.30;39.00;;;;;;5051506;28;20032;-70
2022/03/28 11:38:33;;;;;;;16.20;8.93;;;21.40;38.20;;;;;;5051730;28;20048;-70
2022/03/28 11:41:02;;;;;;;17.05;9.77;;;21.50;38.50;;;;;;5050279;28;20377;-70
2022/03/28 11:43:28;;;;;;;14.32;9.18;;;21.60;38.20;;;;;;5051590;28;20106;-70
2022/03/28 11:45:54;;;;;;;17.27;10.50;;;21.60;37.40;;;;;;5051320;28;20458;-71
2022/03/28 11:48:21;;;;;;;17.05;10.57;;;21.50;37.10;;;;;;5050849;28;20271;-71
2022/03/28 11:50:49;;;;;;;14.80;9.60;;;21.40;37.00;;;;;;5051635;28;20061;-71
2022/03/28 11:53:17;;;;;;;12.85;9.77;;;21.40;37.20;;;;;;5051015;28;20033;-71
2022/03/28 11:55:49;;;;;;;18.17;10.43;;;21.30;37.10;;;;;;5051195;28;20049;-71
2022/03/28 11:58:15;;;;;;;13.30;9.00;;;21.30;37.20;;;;;;5050328;28;20588;-71
2022/03/28 12:00:45;;;;;;;12.75;10.20;;;21.30;37.20;;;;;;5051440;28;20025;-71
2022/03/28 12:03:12;;;;;;;14.93;9.30;;;21.30;37.20;;;;;;5050621;28;20466;-70
2022/03/28 12:05:44;;;;;;;13.27;9.45;;;21.40;37.80;;;;;;5051236;28;20028;-70
2022/03/28 12:08:18;;;;;;;13.68;10.10;;;21.50;37.40;;;;;;5050676;28;20374;-70
2022/03/28 12:10:52;;;;;;;14.45;10.82;;;21.50;37.00;;;;;;5051201;28;20094;-70
2022/03/28 12:13:23;;;;;;;15.15;9.88;;;21.60;37.50;;;;;;5050168;28;20112;-70
2022/03/28 12:16:07;;;;;;;14.48;9.52;;;21.60;37.00;;;;;;5051060;28;20397;-70
2022/03/28 12:18:33;;;;;;;13.77;9.25;;;21.70;38.00;;;;;;5051760;28;20021;-71
2022/03/28 12:20:59;;;;;;;18.38;9.43;;;21.70;36.90;;;;;;5054886;28;20032;-71
2022/03/28 12:23:26;;;;;;;16.02;10.05;;;21.60;36.60;;;;;;5054078;28;20033;-71
2022/03/28 12:25:53;;;;;;;13.82;8.85;;;21.60;36.60;;;;;;5054859;28;20025;-70
2022/03/28 12:28:29;;;;;;;14.73;9.75;;;21.50;36.90;;;;;;5052788;28;20025;-69
2022/03/28 12:30:57;;;;;;;14.18;9.98;;;21.50;36.50;;;;;;5054991;28;20029;-70
2022/03/28 12:33:29;;;;;;;14.48;9.07;;;21.50;36.80;;;;;;5053898;28;20096;-70
2022/03/28 12:36:24;;;;;;;12.82;9.35;;;21.40;37.10;;;;;;5054764;28;20082;-70
2022/03/28 12:39:10;;;;;;;9.95;8.95;;;21.30;37.10;;;;;;5054652;28;20077;-71
2022/03/28 12:41:46;;;;;;;15.60;9.75;;;21.30;37.30;;;;;;5054673;28;20036;-69
2022/03/28 12:44:16;;;;;;;13.27;9.13;;;21.20;36.90;;;;;;5053917;28;20029;-71